createdAt,value
2018-12-20T00:00:26.523Z,6.80
2018-12-20T00:02:35.779Z,7.17
2018-12-20T00:04:44.432Z,6.60
2018-12-20T00:06:54.144Z,6.05
2018-12-20T00:09:03.064Z,6.37
2018-12-20T00:11:11.614Z,7.50
2018-12-20T00:13:21.191Z,6.30
2018-12-20T00:15:30.156Z,6.47
2018-12-20T00:17:45.562Z,6.20
2018-12-20T00:19:54.347Z,6.23
2018-12-20T00:22:03.885Z,7.40
2018-12-20T00:24:12.900Z,6.15
2018-12-20T00:26:21.575Z,6.35
2018-12-20T00:28:31.082Z,6.33
2018-12-20T00:30:40.704Z,6.60
2018-12-20T00:32:49.518Z,6.35
2018-12-20T00:34:58.255Z,7.05
2018-12-20T00:37:07.155Z,5.80
2018-12-20T00:39:16.206Z,6.23
2018-12-20T00:41:25.785Z,6.20
2018-12-20T00:43:34.382Z,6.60
2018-12-20T00:45:43.148Z,7.03
2018-12-20T00:47:51.979Z,6.72
2018-12-20T00:50:00.582Z,6.05
2018-12-20T00:52:09.542Z,6.32
2018-12-20T00:54:18.825Z,6.15
2018-12-20T00:56:27.524Z,6.68
2018-12-20T00:58:36.543Z,6.95
2018-12-20T01:00:45.661Z,6.43
2018-12-20T01:02:55.427Z,6.47
2018-12-20T01:05:03.752Z,6.07
2018-12-20T01:07:12.501Z,5.97
2018-12-20T01:09:21.185Z,5.70
2018-12-20T01:11:30.778Z,6.20
2018-12-20T01:13:40.349Z,6.03
2018-12-20T01:15:49.337Z,5.40
2018-12-20T01:17:58.128Z,6.22
2018-12-20T01:20:07.040Z,5.80
2018-12-20T01:22:16.514Z,6.20
2018-12-20T01:24:25.384Z,6.05
2018-12-20T01:26:33.997Z,5.85
2018-12-20T01:28:42.939Z,7.43
2018-12-20T01:30:52.529Z,6.40
2018-12-20T01:33:01.330Z,6.37
2018-12-20T01:35:11.327Z,6.53
2018-12-20T01:37:19.882Z,6.50
2018-12-20T01:39:28.761Z,6.37
2018-12-20T01:41:38.511Z,5.13
2018-12-20T01:43:48.041Z,6.75
2018-12-20T01:45:57.535Z,6.30
2018-12-20T01:48:06.491Z,6.18
2018-12-20T01:50:16.157Z,6.40
2018-12-20T01:52:24.700Z,6.22
2018-12-20T01:54:34.375Z,5.93
2018-12-20T01:56:43.913Z,5.93
2018-12-20T01:58:54.309Z,5.70
2018-12-20T02:01:03.019Z,7.00
2018-12-20T02:03:11.839Z,6.43
2018-12-20T02:05:20.850Z,6.57
2018-12-20T02:07:30.276Z,6.12
2018-12-20T02:09:39.111Z,6.50
2018-12-20T02:11:47.833Z,6.37
2018-12-20T02:13:56.673Z,5.87
2018-12-20T02:16:05.367Z,5.93
2018-12-20T02:18:14.171Z,6.78
2018-12-20T02:20:22.888Z,5.63
2018-12-20T02:22:32.510Z,6.90
2018-12-20T02:24:41.840Z,7.13
2018-12-20T02:26:50.490Z,6.47
2018-12-20T02:29:00.256Z,6.53
2018-12-20T02:31:09.154Z,6.43
2018-12-20T02:33:17.887Z,6.03
2018-12-20T02:35:26.638Z,4.87
2018-12-20T02:37:35.340Z,5.25
2018-12-20T02:39:44.029Z,6.25
2018-12-20T02:41:52.767Z,6.43
2018-12-20T02:44:01.450Z,5.53
2018-12-20T02:46:11.237Z,5.43
2018-12-20T02:48:20.760Z,5.53
2018-12-20T02:50:30.826Z,5.60
2018-12-20T02:52:39.507Z,5.97
2018-12-20T02:54:48.422Z,5.00
2018-12-20T02:56:57.679Z,5.47
2018-12-20T02:59:06.369Z,4.75
2018-12-20T03:01:15.122Z,5.57
2018-12-20T03:03:24.111Z,4.82
2018-12-20T03:05:32.498Z,4.07
2018-12-20T03:07:41.307Z,6.00
2018-12-20T03:09:50.185Z,4.50
2018-12-20T03:11:58.901Z,5.10
2018-12-20T03:14:07.727Z,4.57
2018-12-20T03:16:16.640Z,5.33
2018-12-20T03:18:25.231Z,5.30
2018-12-20T03:20:34.323Z,4.73
2018-12-20T03:22:43.006Z,4.50
2018-12-20T03:24:51.993Z,4.15
2018-12-20T03:27:00.408Z,5.30
2018-12-20T03:29:10.710Z,5.28
2018-12-20T03:31:19.839Z,4.00
2018-12-20T03:33:28.781Z,4.07
2018-12-20T03:35:37.070Z,4.45
2018-12-20T03:37:46.040Z,4.63
2018-12-20T03:39:56.846Z,5.00
2018-12-20T03:42:04.185Z,4.37
2018-12-20T03:44:13.011Z,4.80
2018-12-20T03:46:21.723Z,4.70
2018-12-20T03:48:31.371Z,4.03
2018-12-20T03:50:40.899Z,4.35
2018-12-20T03:52:50.347Z,5.57
2018-12-20T03:54:59.179Z,5.30
2018-12-20T03:57:08.869Z,4.87
2018-12-20T03:59:17.885Z,5.03
2018-12-20T04:01:26.814Z,4.87
2018-12-20T04:03:36.238Z,4.90
2018-12-20T04:05:45.270Z,4.47
2018-12-20T04:07:53.919Z,5.10
2018-12-20T04:10:02.667Z,4.00
2018-12-20T04:12:12.047Z,4.80
2018-12-20T04:14:21.483Z,4.87
2018-12-20T04:16:30.687Z,5.32
2018-12-20T04:18:39.073Z,4.95
2018-12-20T04:20:48.570Z,5.03
2018-12-20T04:22:57.510Z,5.30
2018-12-20T04:25:06.335Z,4.57
2018-12-20T04:27:16.516Z,5.05
2018-12-20T04:29:25.464Z,4.60
2018-12-20T04:31:34.189Z,5.20
2018-12-20T04:33:42.845Z,5.93
2018-12-20T04:35:51.576Z,4.97
2018-12-20T04:38:00.371Z,5.07
2018-12-20T04:40:09.148Z,5.20
2018-12-20T04:42:18.044Z,5.15
2018-12-20T04:44:26.757Z,5.50
2018-12-20T04:46:36.313Z,4.23
2018-12-20T04:48:45.577Z,5.03
2018-12-20T04:50:55.311Z,5.27
2018-12-20T04:53:04.004Z,5.00
2018-12-20T04:55:14.683Z,5.30
2018-12-20T04:57:23.440Z,5.37
2018-12-20T04:59:33.085Z,5.60
2018-12-20T05:01:41.746Z,4.80
2018-12-20T05:03:50.812Z,5.50
2018-12-20T05:05:59.747Z,4.72
2018-12-20T05:08:09.737Z,5.00
2018-12-20T05:10:18.504Z,5.53
2018-12-20T05:12:27.399Z,4.65
2018-12-20T05:14:37.278Z,4.60
2018-12-20T05:16:46.458Z,4.17
2018-12-20T05:18:55.104Z,3.93
2018-12-20T05:21:03.862Z,5.00
2018-12-20T05:23:12.700Z,5.77
2018-12-20T05:25:21.405Z,4.93
2018-12-20T05:27:30.896Z,4.90
2018-12-20T05:29:40.453Z,4.45
2018-12-20T05:31:49.256Z,4.97
2018-12-20T05:33:59.098Z,4.23
2018-12-20T05:36:08.328Z,4.95
2018-12-20T05:38:17.745Z,4.53
2018-12-20T05:40:26.570Z,4.78
2018-12-20T05:42:35.429Z,4.70
2018-12-20T05:44:43.904Z,3.70
2018-12-20T05:46:54.250Z,4.17
2018-12-20T05:49:02.756Z,3.67
2018-12-20T05:51:12.931Z,3.43
2018-12-20T05:53:21.872Z,3.95
2018-12-20T05:55:30.592Z,4.43
2018-12-20T05:57:39.290Z,4.32
2018-12-20T05:59:49.238Z,3.67
2018-12-20T06:01:57.957Z,4.25
2018-12-20T06:04:06.781Z,3.72
2018-12-20T06:06:15.351Z,3.72
2018-12-20T06:08:24.223Z,4.10
2018-12-20T06:10:32.913Z,4.22
2018-12-20T06:12:41.553Z,3.62
2018-12-20T06:14:50.171Z,4.40
2018-12-20T06:16:58.890Z,3.90
2018-12-20T06:19:08.907Z,4.03
2018-12-20T06:21:17.613Z,4.00
2018-12-20T06:23:26.947Z,3.93
2018-12-20T06:25:35.602Z,3.60
2018-12-20T06:27:44.430Z,4.17
2018-12-20T06:29:53.931Z,4.90
2018-12-20T06:32:03.587Z,4.37
2018-12-20T06:34:13.132Z,3.90
2018-12-20T06:36:21.812Z,4.40
2018-12-20T06:38:31.354Z,4.30
2018-12-20T06:40:41.027Z,4.20
2018-12-20T06:42:49.739Z,3.42
2018-12-20T06:44:59.846Z,3.63
2018-12-20T06:47:08.543Z,3.75
2018-12-20T06:49:18.120Z,3.70
2018-12-20T06:51:26.859Z,3.83
2018-12-20T06:53:36.589Z,4.00
2018-12-20T06:55:45.407Z,3.43
2018-12-20T06:57:54.155Z,4.30
2018-12-20T07:00:04.652Z,3.70
2018-12-20T07:02:14.043Z,3.30
2018-12-20T07:04:22.870Z,3.83
2018-12-20T07:06:31.578Z,3.45
2018-12-20T07:08:40.295Z,4.05
2018-12-20T07:10:48.911Z,3.42
2018-12-20T07:12:57.595Z,3.08
2018-12-20T07:15:06.211Z,3.20
2018-12-20T07:17:15.168Z,3.17
2018-12-20T07:19:23.818Z,3.30
2018-12-20T07:21:32.962Z,4.00
2018-12-20T07:23:42.338Z,2.93
2018-12-20T07:25:51.234Z,2.53
2018-12-20T07:27:59.983Z,3.15
2018-12-20T07:30:08.900Z,2.90
2018-12-20T07:32:25.039Z,2.33
2018-12-20T07:34:29.065Z,2.80
2018-12-20T07:36:37.684Z,2.15
2018-12-20T07:38:46.334Z,2.75
2018-12-20T07:40:55.095Z,3.00
2018-12-20T07:43:03.868Z,2.40
2018-12-20T07:45:12.567Z,2.00
2018-12-20T07:47:22.363Z,2.00
2018-12-20T07:49:31.147Z,2.10
2018-12-20T07:51:40.078Z,2.10
2018-12-20T07:53:49.603Z,2.67
2018-12-20T07:55:58.320Z,2.05
2018-12-20T07:58:07.747Z,2.20
2018-12-20T08:00:16.566Z,2.35
2018-12-20T08:02:26.558Z,2.58
2018-12-20T08:04:35.231Z,2.22
2018-12-20T08:06:44.063Z,2.30
2018-12-20T08:08:52.781Z,2.20
2018-12-20T08:11:01.331Z,1.93
2018-12-20T08:13:10.207Z,2.47
2018-12-20T08:15:18.978Z,2.17
2018-12-20T08:17:27.700Z,2.40
2018-12-20T08:19:37.089Z,2.35
2018-12-20T08:21:45.911Z,2.17
2018-12-20T08:23:54.607Z,2.17
2018-12-20T08:26:04.139Z,1.73
2018-12-20T08:28:13.889Z,2.05
2018-12-20T08:30:24.006Z,2.65
2018-12-20T08:32:32.826Z,1.60
2018-12-20T08:34:41.373Z,2.00
2018-12-20T08:36:51.638Z,1.50
2018-12-20T08:39:00.574Z,1.70
2018-12-20T08:41:09.432Z,1.70
2018-12-20T08:43:18.268Z,1.10
2018-12-20T08:45:26.915Z,1.50
2018-12-20T08:47:35.742Z,1.27
2018-12-20T08:49:44.677Z,1.48
2018-12-20T08:51:53.920Z,1.40
2018-12-20T08:54:02.516Z,1.30
2018-12-20T08:56:12.103Z,1.48
2018-12-20T08:58:20.954Z,1.70
2018-12-20T09:00:29.681Z,1.47
2018-12-20T09:02:38.586Z,1.30
2018-12-20T09:04:47.423Z,1.37
2018-12-20T09:06:56.239Z,1.40
2018-12-20T09:09:05.198Z,1.60
2018-12-20T09:11:13.830Z,1.87
2018-12-20T09:13:23.101Z,1.90
2018-12-20T09:15:32.639Z,1.60
2018-12-20T09:17:42.286Z,1.90
2018-12-20T09:19:51.111Z,1.40
2018-12-20T09:21:59.890Z,1.58
2018-12-20T09:24:09.566Z,2.03
2018-12-20T09:26:19.210Z,1.37
2018-12-20T09:28:29.293Z,1.50
2018-12-20T09:30:38.089Z,1.30
2018-12-20T09:32:46.895Z,1.40
2018-12-20T09:34:56.518Z,1.80
2018-12-20T09:37:05.936Z,1.67
2018-12-20T09:39:14.531Z,2.08
2018-12-20T09:41:23.332Z,1.60
2018-12-20T09:43:34.510Z,1.50
2018-12-20T09:45:43.159Z,1.50
2018-12-20T09:47:53.414Z,1.52
2018-12-20T09:50:02.295Z,1.62
2018-12-20T09:52:12.569Z,1.10
2018-12-20T09:54:21.268Z,1.73
2018-12-20T09:56:30.672Z,1.30
2018-12-20T09:58:39.458Z,1.50
2018-12-20T10:00:48.988Z,1.73
2018-12-20T10:02:58.012Z,1.85
2018-12-20T10:05:07.428Z,1.60
2018-12-20T10:07:16.257Z,1.80
2018-12-20T10:09:25.116Z,1.10
2018-12-20T10:11:33.786Z,2.20
2018-12-20T10:13:43.279Z,1.33
2018-12-20T10:15:53.122Z,1.37
2018-12-20T10:18:01.753Z,1.60
2018-12-20T10:20:10.667Z,1.20
2018-12-20T10:22:19.298Z,1.62
2018-12-20T10:24:27.988Z,1.55
2018-12-20T10:26:36.596Z,1.70
2018-12-20T10:28:45.324Z,1.15
2018-12-20T10:30:54.045Z,1.40
2018-12-20T10:33:02.827Z,1.07
2018-12-20T10:35:11.664Z,1.20
2018-12-20T10:37:20.603Z,1.30
2018-12-20T10:39:29.294Z,1.47
2018-12-20T10:41:38.732Z,1.23
2018-12-20T10:43:47.411Z,1.42
2018-12-20T10:45:57.007Z,1.27
2018-12-20T10:48:05.931Z,1.33
2018-12-20T10:50:14.852Z,1.40
2018-12-20T10:52:24.294Z,1.10
2018-12-20T10:54:33.111Z,1.10
2018-12-20T10:56:41.938Z,1.60
2018-12-20T10:58:51.467Z,1.30
2018-12-20T11:01:06.127Z,0.87
2018-12-20T11:03:35.864Z,1.37
2018-12-20T11:05:50.358Z,1.17
2018-12-20T11:07:59.184Z,1.25
2018-12-20T11:10:13.629Z,1.00
2018-12-20T11:12:26.298Z,1.40
2018-12-20T11:14:34.911Z,1.20
2018-12-20T11:16:44.481Z,1.30
2018-12-20T11:18:53.334Z,1.52
2018-12-20T11:21:03.043Z,1.10
2018-12-20T11:23:13.435Z,1.10
2018-12-20T11:25:22.300Z,1.40
2018-12-20T11:27:31.895Z,1.23
2018-12-20T11:29:41.924Z,0.95
2018-12-20T11:31:50.562Z,0.80
2018-12-20T11:33:59.987Z,1.15
2018-12-20T11:36:11.119Z,1.58
2018-12-20T11:38:20.022Z,1.40
2018-12-20T11:40:28.911Z,1.80
2018-12-20T11:42:37.635Z,1.23
2018-12-20T11:44:47.570Z,1.73
2018-12-20T11:46:56.195Z,1.00
2018-12-20T11:49:05.062Z,1.00
2018-12-20T11:51:13.914Z,1.43
2018-12-20T11:53:22.751Z,1.23
2018-12-20T11:55:31.255Z,1.67
2018-12-20T11:57:40.144Z,1.05
2018-12-20T11:59:48.723Z,1.75
2018-12-20T12:01:57.496Z,1.25
2018-12-20T12:04:06.120Z,1.40
2018-12-20T12:06:14.958Z,1.55
2018-12-20T12:08:24.421Z,1.30
2018-12-20T12:10:34.000Z,1.07
2018-12-20T12:12:42.778Z,1.20
2018-12-20T12:14:52.695Z,0.90
2018-12-20T12:17:01.486Z,1.10
2018-12-20T12:19:10.343Z,1.00
2018-12-20T12:21:19.157Z,1.13
2018-12-20T12:23:28.667Z,0.97
2018-12-20T12:25:38.071Z,1.10
2018-12-20T12:27:47.116Z,1.00
2018-12-20T12:29:55.768Z,1.30
2018-12-20T12:32:04.616Z,1.07
2018-12-20T12:34:13.945Z,0.97
2018-12-20T12:36:22.722Z,0.80
2018-12-20T12:38:31.427Z,0.80
2018-12-20T12:40:40.779Z,0.88
2018-12-20T12:42:49.636Z,0.80
2018-12-20T12:44:58.384Z,1.10
2018-12-20T12:47:08.164Z,1.00
2018-12-20T12:49:17.194Z,1.23
2018-12-20T12:51:25.979Z,1.00
2018-12-20T12:53:34.723Z,0.93
2018-12-20T12:55:44.264Z,0.93
2018-12-20T12:57:52.977Z,1.47
2018-12-20T13:00:01.786Z,1.27
2018-12-20T13:02:10.926Z,1.17
2018-12-20T13:04:20.370Z,1.40
2018-12-20T13:06:29.183Z,1.10
2018-12-20T13:08:39.262Z,1.00
2018-12-20T13:10:47.939Z,1.20
2018-12-20T13:12:56.669Z,1.40
2018-12-20T13:15:06.178Z,1.10
2018-12-20T13:17:15.011Z,0.93
2018-12-20T13:19:23.831Z,1.30
2018-12-20T13:21:33.679Z,1.30
2018-12-20T13:23:42.479Z,0.90
2018-12-20T13:25:51.131Z,1.80
2018-12-20T13:28:00.997Z,1.45
2018-12-20T13:30:09.792Z,1.20
2018-12-20T13:32:18.362Z,1.87
2018-12-20T13:34:28.734Z,1.40
2018-12-20T13:36:37.627Z,1.00
2018-12-20T13:38:47.233Z,1.27
2018-12-20T13:40:55.960Z,1.37
2018-12-20T13:43:06.291Z,1.00
2018-12-20T13:45:15.022Z,1.43
2018-12-20T13:47:25.104Z,1.30
2018-12-20T13:49:34.580Z,1.03
2018-12-20T13:51:43.291Z,1.30
2018-12-20T13:53:52.383Z,1.10
2018-12-20T13:56:00.944Z,1.20
2018-12-20T13:58:09.634Z,1.20
2018-12-20T14:00:19.407Z,1.10
2018-12-20T14:02:28.069Z,1.07
2018-12-20T14:04:37.711Z,1.20
2018-12-20T14:06:46.487Z,0.77
2018-12-20T14:08:56.240Z,1.20
2018-12-20T14:11:04.916Z,1.33
2018-12-20T14:13:13.662Z,1.17
2018-12-20T14:15:22.301Z,0.90
2018-12-20T14:17:31.188Z,1.10
2018-12-20T14:19:40.110Z,1.20
2018-12-20T14:21:48.903Z,1.00
2018-12-20T14:23:57.528Z,0.90
2018-12-20T14:26:06.507Z,1.30
2018-12-20T14:28:15.087Z,1.17
2018-12-20T14:30:25.195Z,1.25
2018-12-20T14:32:33.828Z,1.20
2018-12-20T14:34:42.508Z,1.23
2018-12-20T14:36:52.007Z,1.40
2018-12-20T14:39:00.921Z,1.50
2018-12-20T14:41:09.646Z,1.40
2018-12-20T14:43:18.355Z,1.50
2018-12-20T14:45:28.244Z,1.33
2018-12-20T14:47:37.679Z,1.25
2018-12-20T14:49:46.662Z,1.67
2018-12-20T14:51:55.434Z,1.20
2018-12-20T14:54:04.187Z,1.60
2018-12-20T14:56:14.019Z,1.25
2018-12-20T14:58:22.769Z,1.10
2018-12-20T15:00:33.227Z,1.87
2018-12-20T15:02:41.963Z,1.90
2018-12-20T15:04:51.752Z,1.30
2018-12-20T15:07:00.399Z,1.55
2018-12-20T15:09:10.038Z,1.55
2018-12-20T15:11:18.855Z,1.80
2018-12-20T15:13:27.584Z,1.60
2018-12-20T15:15:36.297Z,1.03
2018-12-20T15:17:45.114Z,1.57
2018-12-20T15:19:54.072Z,1.00
2018-12-20T15:22:02.719Z,1.67
2018-12-20T15:24:12.136Z,1.40
2018-12-20T15:26:20.738Z,1.23
2018-12-20T15:28:29.415Z,1.17
2018-12-20T15:30:38.099Z,1.33
2018-12-20T15:32:46.862Z,1.60
2018-12-20T15:34:55.669Z,1.57
2018-12-20T15:37:05.192Z,1.70
2018-12-20T15:39:13.831Z,1.80
2018-12-20T15:41:22.746Z,1.70
2018-12-20T15:43:31.599Z,1.00
2018-12-20T15:45:40.386Z,1.70
2018-12-20T15:47:49.411Z,1.60
2018-12-20T15:49:58.067Z,1.77
2018-12-20T15:52:07.048Z,2.58
2018-12-20T15:54:15.755Z,1.40
2018-12-20T15:56:25.476Z,1.50
2018-12-20T15:58:34.258Z,1.30
2018-12-20T16:00:42.896Z,1.65
2018-12-20T16:02:51.725Z,1.77
2018-12-20T16:05:01.182Z,1.50
2018-12-20T16:07:09.891Z,2.00
2018-12-20T16:09:19.415Z,1.95
2018-12-20T16:11:29.093Z,2.12
2018-12-20T16:13:37.715Z,1.90
2018-12-20T16:15:46.428Z,2.10
2018-12-20T16:17:55.240Z,1.75
2018-12-20T16:20:03.948Z,1.97
2018-12-20T16:22:12.669Z,1.80
2018-12-20T16:24:21.508Z,1.97
2018-12-20T16:26:30.247Z,2.10
2018-12-20T16:28:39.646Z,1.77
2018-12-20T16:30:48.578Z,2.00
2018-12-20T16:32:57.291Z,1.67
2018-12-20T16:35:05.972Z,2.30
2018-12-20T16:37:14.871Z,2.28
2018-12-20T16:39:24.682Z,1.70
2018-12-20T16:41:34.071Z,1.90
2018-12-20T16:43:43.231Z,2.40
2018-12-20T16:45:51.979Z,2.60
2018-12-20T16:48:00.643Z,2.10
2018-12-20T16:50:09.283Z,1.75
2018-12-20T16:52:18.919Z,1.83
2018-12-20T16:54:27.745Z,1.60
2018-12-20T16:56:37.661Z,2.23
2018-12-20T16:58:46.403Z,2.40
2018-12-20T17:00:55.310Z,2.20
2018-12-20T17:03:03.916Z,1.80
2018-12-20T17:05:12.756Z,1.57
2018-12-20T17:07:22.162Z,1.67
2018-12-20T17:09:30.815Z,2.10
2018-12-20T17:11:41.206Z,1.40
2018-12-20T17:13:49.988Z,2.37
2018-12-20T17:15:59.488Z,1.83
2018-12-20T17:18:08.330Z,1.85
2018-12-20T17:20:17.384Z,2.33
2018-12-20T17:22:26.593Z,2.08
2018-12-20T17:24:36.107Z,2.33
2018-12-20T17:26:44.955Z,1.90
2018-12-20T17:28:53.667Z,2.40
2018-12-20T17:31:02.379Z,2.23
2018-12-20T17:33:11.187Z,2.23
2018-12-20T17:35:20.111Z,1.90
2018-12-20T17:37:28.881Z,2.12
2018-12-20T17:39:38.594Z,2.00
2018-12-20T17:41:47.508Z,2.08
2018-12-20T17:43:56.427Z,1.77
2018-12-20T17:46:05.263Z,3.08
2018-12-20T17:48:14.079Z,2.20
2018-12-20T17:50:22.695Z,2.50
2018-12-20T17:52:32.017Z,2.00
2018-12-20T17:54:40.752Z,2.97
2018-12-20T17:56:49.547Z,2.40
2018-12-20T17:58:58.141Z,2.50
2018-12-20T18:01:07.598Z,2.47
2018-12-20T18:03:16.627Z,2.42
2018-12-20T18:05:25.207Z,2.50
2018-12-20T18:07:34.647Z,2.72
2018-12-20T18:09:43.487Z,1.80
2018-12-20T18:11:53.138Z,2.00
2018-12-20T18:14:02.787Z,1.73
2018-12-20T18:16:11.607Z,2.23
2018-12-20T18:18:20.411Z,2.63
2018-12-20T18:20:29.339Z,2.20
2018-12-20T18:22:38.153Z,2.03
2018-12-20T18:24:46.987Z,2.00
2018-12-20T18:26:56.605Z,2.30
2018-12-20T18:29:06.151Z,2.08
2018-12-20T18:31:15.931Z,1.40
2018-12-20T18:33:24.576Z,2.00
2018-12-20T18:35:33.465Z,1.75
2018-12-20T18:37:42.123Z,1.95
2018-12-20T18:39:51.664Z,2.00
2018-12-20T18:42:00.521Z,1.90
2018-12-20T18:44:09.340Z,2.23
2018-12-20T18:46:17.965Z,2.37
2018-12-20T18:48:26.716Z,1.23
2018-12-20T18:50:35.586Z,1.50
2018-12-20T18:52:44.363Z,1.80
2018-12-20T18:54:53.148Z,1.95
2018-12-20T18:57:01.947Z,1.58
2018-12-20T18:59:10.877Z,1.98
2018-12-20T19:01:19.581Z,1.73
2018-12-20T19:03:28.351Z,1.60
2018-12-20T19:05:37.184Z,1.83
2018-12-20T19:07:45.831Z,1.50
2018-12-20T19:09:54.595Z,1.77
2018-12-20T19:12:03.388Z,1.73
2018-12-20T19:14:12.146Z,1.77
2018-12-20T19:16:20.728Z,1.60
2018-12-20T19:18:29.632Z,1.10
2018-12-20T19:20:38.449Z,1.70
2018-12-20T19:22:47.292Z,1.23
2018-12-20T19:24:56.083Z,1.50
2018-12-20T19:27:04.712Z,1.40
2018-12-20T19:29:13.951Z,1.10
2018-12-20T19:31:22.843Z,1.25
2018-12-20T19:33:31.578Z,1.87
2018-12-20T19:35:40.288Z,1.30
2018-12-20T19:37:49.119Z,1.20
2018-12-20T19:39:58.615Z,1.60
2018-12-20T19:42:07.179Z,1.40
2018-12-20T19:44:16.056Z,1.40
2018-12-20T19:46:24.740Z,1.50
2018-12-20T19:48:33.419Z,1.45
2018-12-20T19:50:42.919Z,1.30
2018-12-20T19:52:51.833Z,1.80
2018-12-20T19:55:00.440Z,1.80
2018-12-20T19:57:09.300Z,1.50
2018-12-20T19:59:18.814Z,1.40
2018-12-20T20:01:28.355Z,1.80
2018-12-20T20:03:37.012Z,1.37
2018-12-20T20:05:45.781Z,1.70
2018-12-20T20:07:54.527Z,1.60
2018-12-20T20:10:03.923Z,1.63
2018-12-20T20:12:13.584Z,1.85
2018-12-20T20:14:22.326Z,2.00
2018-12-20T20:16:30.982Z,2.00
2018-12-20T20:18:40.550Z,1.62
2018-12-20T20:20:49.304Z,2.47
2018-12-20T20:22:58.058Z,2.47
2018-12-20T20:25:06.879Z,2.07
2018-12-20T20:27:15.956Z,1.80
2018-12-20T20:29:25.089Z,2.50
2018-12-20T20:31:33.950Z,1.63
2018-12-20T20:33:42.635Z,2.43
2018-12-20T20:35:51.302Z,2.10
2018-12-20T20:37:59.901Z,1.77
2018-12-20T20:40:08.688Z,1.77
2018-12-20T20:42:17.367Z,2.00
2018-12-20T20:44:26.815Z,1.48
2018-12-20T20:46:35.619Z,1.90
2018-12-20T20:48:44.198Z,2.05
2018-12-20T20:50:52.910Z,2.10
2018-12-20T20:53:01.769Z,2.23
2018-12-20T20:55:10.505Z,2.07
2018-12-20T20:57:20.126Z,1.77
2018-12-20T20:59:28.995Z,2.37
2018-12-20T21:01:37.873Z,2.20
2018-12-20T21:03:46.486Z,2.10
2018-12-20T21:05:55.333Z,2.53
2018-12-20T21:08:04.018Z,1.60
2018-12-20T21:10:12.842Z,2.53
2018-12-20T21:12:22.924Z,1.37
2018-12-20T21:14:30.236Z,1.92
2018-12-20T21:16:38.987Z,1.70
2018-12-20T21:18:47.818Z,2.00
2018-12-20T21:20:56.659Z,1.97
2018-12-20T21:23:05.197Z,2.53
2018-12-20T21:25:13.842Z,2.10
2018-12-20T21:27:23.603Z,1.58
2018-12-20T21:29:32.236Z,2.12
2018-12-20T21:31:41.066Z,1.40
2018-12-20T21:33:49.791Z,1.47
2018-12-20T21:35:58.726Z,1.77
2018-12-20T21:38:07.430Z,1.67
2018-12-20T21:40:18.743Z,1.13
2018-12-20T21:42:25.872Z,2.43
2018-12-20T21:44:34.769Z,2.20
2018-12-20T21:46:43.419Z,2.80
2018-12-20T21:48:52.099Z,2.00
2018-12-20T21:51:00.871Z,1.70
2018-12-20T21:53:09.543Z,1.60
2018-12-20T21:55:18.392Z,1.77
2018-12-20T21:57:27.117Z,1.45
2018-12-20T21:59:35.935Z,1.70
2018-12-20T22:01:44.598Z,1.73
2018-12-20T22:03:53.365Z,1.62
2018-12-20T22:06:02.811Z,1.70
2018-12-20T22:08:11.640Z,2.57
2018-12-20T22:10:20.542Z,1.90
2018-12-20T22:12:29.267Z,1.93
2018-12-20T22:14:37.934Z,1.63
2018-12-20T22:16:46.552Z,1.80
2018-12-20T22:18:56.195Z,1.80
2018-12-20T22:21:04.758Z,2.28
2018-12-20T22:23:13.562Z,2.00
2018-12-20T22:25:23.596Z,1.60
2018-12-20T22:27:32.322Z,1.92
2018-12-20T22:29:41.730Z,1.90
2018-12-20T22:31:50.618Z,1.80
2018-12-20T22:33:59.355Z,1.33
2018-12-20T22:36:08.091Z,1.60
2018-12-20T22:38:17.633Z,1.83
2018-12-20T22:40:26.235Z,1.73
2018-12-20T22:42:34.936Z,1.60
2018-12-20T22:44:44.728Z,2.05
2018-12-20T22:46:53.256Z,2.00
2018-12-20T22:49:01.965Z,1.48
2018-12-20T22:51:10.718Z,1.60
2018-12-20T22:53:21.124Z,1.87
2018-12-20T22:55:29.751Z,1.62
2018-12-20T22:57:38.439Z,1.70
2018-12-20T22:59:47.086Z,1.63
2018-12-20T23:01:55.674Z,1.60
2018-12-20T23:04:04.509Z,2.10
2018-12-20T23:06:13.407Z,1.83
2018-12-20T23:08:22.263Z,1.90
2018-12-20T23:10:31.127Z,2.10
2018-12-20T23:12:39.868Z,1.80
2018-12-20T23:14:48.524Z,1.55
2018-12-20T23:16:57.215Z,1.62
2018-12-20T23:19:06.163Z,2.30
2018-12-20T23:21:14.949Z,1.70
2018-12-20T23:23:23.870Z,1.70
2018-12-20T23:25:32.737Z,1.83
2018-12-20T23:27:42.333Z,1.45
2018-12-20T23:29:52.002Z,2.33
2018-12-20T23:32:00.816Z,2.00
2018-12-20T23:34:10.312Z,1.73
2018-12-20T23:36:19.128Z,2.00
2018-12-20T23:38:27.993Z,1.87
2018-12-20T23:40:36.671Z,1.90
2018-12-20T23:42:45.323Z,1.35
2018-12-20T23:44:54.044Z,2.10
2018-12-20T23:47:02.777Z,1.60
2018-12-20T23:49:11.518Z,2.00
2018-12-20T23:51:21.111Z,1.80
2018-12-20T23:53:30.607Z,1.67
2018-12-20T23:55:39.922Z,2.05
2018-12-20T23:57:48.600Z,2.25
2018-12-20T23:59:57.334Z,1.75
